Observations for NORWICH WEA CNTRE, United Kingdom (EGSH)

EGSH 240920Z 14007KT 110V180 CAVOK 25/19 Q1015 NOSIG
EGSH 240850Z 13008KT 100V170 CAVOK 24/19 Q1015 NOSIG
EGSH 240820Z 14008KT 110V180 CAVOK 23/18 Q1015 NOSIG
EGSH 240750Z 14008KT CAVOK 22/18 Q1015 NOSIG
EGSH 240720Z 13006KT 100V170 CAVOK 21/17 Q1015 NOSIG
EGSH 240650Z 13007KT 100V160 CAVOK 21/17 Q1015 NOSIG
EGSH 240620Z 13005KT CAVOK 20/17 Q1015 NOSIG
EGSH 240550Z 14005KT CAVOK 20/17 Q1015 NOSIG
EGSH 240520Z 13005KT CAVOK 19/17 Q1015 NOSIG
EGSH 240450Z 13005KT CAVOK 19/17 Q1015 NOSIG
EGSH 240420Z AUTO 13006KT 100V160 9999 NCD 19/17 Q1015  
EGSH 240350Z AUTO 13006KT 9999 NCD 18/16 Q1015  
EGSH 240320Z AUTO 13005KT 9999 NCD 18/16 Q1015  
EGSH 240250Z AUTO 13004KT 9999 NCD 17/16 Q1015  
EGSH 240220Z AUTO VRB02KT 9999 NCD 16/15 Q1015  
EGSH 240150Z AUTO 09002KT 9999 NCD 16/15 Q1015  
EGSH 240120Z AUTO 06003KT 9999 NCD 16/15 Q1015  
EGSH 240050Z AUTO 05001KT 9999 NCD 17/16 Q1016  
EGSH 240020Z AUTO VRB01KT 9999 NCD 17/16 Q1016  
EGSH 232350Z AUTO 05004KT 9999 NCD 17/16 Q1016  
EGSH 232320Z AUTO 05005KT 9999 NCD 17/16 Q1016  
EGSH 232250Z AUTO 03003KT 9999 NCD 16/15 Q1017  
EGSH 232220Z AUTO 04005KT 9999 NCD 16/15 Q1016  
EGSH 232150Z 04005KT 9000 NSC 16/15 Q1017 NOSIG 
EGSH 232120Z 03005KT 9000 NSC 16/15 Q1017 NOSIG 
EGSH 232050Z 03005KT 9000 NSC 16/15 Q1017 NOSIG 
EGSH 232020Z 03005KT 9000 NSC 16/15 Q1017 NOSIG 
EGSH 231950Z 02005KT 9000 NSC 17/15 Q1017 NOSIG 
EGSH 231920Z 04006KT 010V070 9000 NSC 17/15 Q1017 NOSIG 
EGSH 231850Z 05007KT 9000 NSC 17/15 Q1017 NOSIG 
EGSH 231820Z 05006KT 9000 NSC 17/15 Q1017 NOSIG 
EGSH 231750Z 04005KT 010V070 9000 NSC 17/15 Q1017 NOSIG 
EGSH 231720Z 05008KT 9000 NSC 18/14 Q1017 NOSIG 
EGSH 231650Z 06011KT 9000 NSC 18/14 Q1017 NOSIG 
EGSH 231620Z 06009KT CAVOK 18/14 Q1018 NOSIG
EGSH 231550Z 05009KT CAVOK 19/15 Q1018 NOSIG
EGSH 231520Z 05010KT 020V090 CAVOK 20/14 Q1018 NOSIG
EGSH 231450Z 04010KT 020V080 CAVOK 20/14 Q1018 NOSIG
EGSH 231420Z 06011KT CAVOK 21/14 Q1018 NOSIG
EGSH 231350Z 07012KT 050V110 CAVOK 22/14 Q1018 NOSIG
EGSH 231320Z 06009KT 010V100 CAVOK 21/14 Q1018 NOSIG
EGSH 231250Z 05010KT 010V090 CAVOK 21/15 Q1019 NOSIG
EGSH 231220Z 05009KT 010V090 CAVOK 21/16 Q1019 NOSIG
EGSH 231150Z 05008KT 010V090 CAVOK 20/15 Q1019 NOSIG
EGSH 231120Z 05008KT CAVOK 20/16 Q1020 NOSIG
EGSH 231050Z 05007KT 020V100 CAVOK 19/16 Q1019 NOSIG
EGSH 231020Z 05008KT 020V090 CAVOK 19/15 Q1019 NOSIG
EGSH 230950Z 04008KT 010V080 CAVOK 18/15 Q1019 NOSIG
EGSH 230920Z 05006KT 010V100 9999 FEW012 18/15 Q1020 NOSIG  
EGSH 230850Z 06005KT 020V100 9999 FEW012 18/15 Q1020 NOSIG